Time;durP1;ratioP1;P1;durP2;ratioP2;P2;SDS_P1;SDS_P2;PMS_P1;PMS_P2;Temp;Humidity;BMP_temperature;BMP_pressure;BME280_temperature;BME280_humidity;BME280_pressure;Samples;Min_cycle;Max_cycle;Signal;HPM_P1;HPM_P2
2022/09/15 00:01:54;;;;;;;6.40;4.20;;;17.70;63.10;;;;;;7381304;19;20015;-66
2022/09/15 00:04:24;;;;;;;7.15;4.10;;;17.70;63.20;;;;;;7383684;19;20010;-66
2022/09/15 00:06:54;;;;;;;8.55;3.67;;;17.60;62.80;;;;;;7389291;19;20014;-66
2022/09/15 00:09:26;;;;;;;5.45;4.00;;;17.70;62.90;;;;;;7394513;19;20038;-65
2022/09/15 00:11:56;;;;;;;6.65;3.88;;;17.70;62.70;;;;;;7389071;19;20700;-66
2022/09/15 00:14:26;;;;;;;4.75;3.20;;;17.70;62.60;;;;;;7388618;19;20082;-66
2022/09/15 00:16:56;;;;;;;6.82;3.10;;;17.60;62.40;;;;;;7388246;19;20021;-66
2022/09/15 00:19:26;;;;;;;3.92;2.95;;;17.60;62.30;;;;;;7392745;19;20030;-65
2022/09/15 00:21:55;;;;;;;4.18;2.85;;;17.60;62.30;;;;;;7387136;19;20039;-66
2022/09/15 00:24:28;;;;;;;5.32;2.28;;;17.60;62.00;;;;;;7389810;19;20462;-66
2022/09/15 00:26:58;;;;;;;5.85;2.15;;;17.60;61.00;;;;;;7388136;19;20120;-66
2022/09/15 00:29:27;;;;;;;3.15;1.88;;;17.60;60.20;;;;;;7392666;19;20486;-66
2022/09/15 00:31:57;;;;;;;3.03;2.00;;;17.60;58.70;;;;;;7389215;19;20038;-66
2022/09/15 00:34:27;;;;;;;4.50;2.20;;;17.70;58.70;;;;;;7388099;19;20015;-66
2022/09/15 00:36:57;;;;;;;5.55;2.10;;;17.70;57.70;;;;;;7388130;19;20029;-66
2022/09/15 00:39:30;;;;;;;4.18;2.10;;;17.70;57.40;;;;;;7392239;19;20006;-66
2022/09/15 00:42:00;;;;;;;3.60;2.50;;;17.60;56.80;;;;;;7388526;19;20038;-66
2022/09/15 00:44:49;;;;;;;4.25;2.30;;;17.60;56.30;;;;;;7387871;19;20015;-66
2022/09/15 00:47:21;;;;;;;7.38;2.22;;;17.60;56.00;;;;;;7390315;19;20011;-65
2022/09/15 00:49:55;;;;;;;4.93;2.10;;;17.70;56.30;;;;;;7388854;19;20017;-66
2022/09/15 00:52:32;;;;;;;5.45;2.40;;;17.70;56.40;;;;;;7389799;19;20019;-66
2022/09/15 00:55:09;;;;;;;2.75;2.00;;;17.70;56.30;;;;;;7385472;19;20018;-66
2022/09/15 00:57:41;;;;;;;4.05;2.28;;;17.70;56.30;;;;;;7387388;19;20063;-66
2022/09/15 01:00:15;;;;;;;7.57;2.75;;;17.70;56.30;;;;;;7389335;19;20476;-66
2022/09/15 01:02:47;;;;;;;4.35;2.42;;;17.70;57.20;;;;;;7388315;19;20022;-66
2022/09/15 01:05:19;;;;;;;3.08;2.53;;;17.70;57.90;;;;;;7385616;19;20014;-66
2022/09/15 01:07:54;;;;;;;4.13;2.35;;;17.70;58.50;;;;;;7386430;19;20545;-66
2022/09/15 01:10:30;;;;;;;5.18;2.72;;;17.70;58.10;;;;;;7388339;19;20025;-66
2022/09/15 01:13:01;;;;;;;5.70;2.47;;;17.70;58.20;;;;;;7387251;19;20038;-66
2022/09/15 01:15:40;;;;;;;6.47;2.58;;;17.70;59.10;;;;;;7385539;19;20015;-66
2022/09/15 01:18:16;;;;;;;4.25;2.47;;;17.60;58.50;;;;;;7390920;19;20030;-66
2022/09/15 01:21:16;;;;;;;5.40;2.80;;;17.50;58.70;;;;;;7389694;19;20015;-66
2022/09/15 01:24:28;;;;;;;5.43;2.92;;;17.50;59.40;;;;;;7386927;19;20038;-66
2022/09/15 01:27:11;;;;;;;6.90;2.83;;;17.50;60.30;;;;;;7386031;19;20347;-66
2022/09/15 01:30:08;;;;;;;4.45;2.38;;;17.40;60.20;;;;;;7359767;19;20088;-67
2022/09/15 01:35:44;;;;;;;3.72;3.00;;;17.40;61.60;;;;;;7360653;19;20014;-67
2022/09/15 01:38:19;;;;;;;4.50;3.20;;;17.40;62.40;;;;;;7363756;19;21081;-66
2022/09/15 01:40:53;;;;;;;3.65;2.90;;;17.40;62.70;;;;;;7363871;19;20046;-66
2022/09/15 01:43:25;;;;;;;4.13;2.55;;;17.40;63.40;;;;;;7383297;19;20014;-66
2022/09/15 01:45:59;;;;;;;3.53;2.35;;;17.40;63.20;;;;;;7361837;19;20038;-66
2022/09/15 01:48:31;;;;;;;3.20;2.00;;;17.40;62.30;;;;;;7364877;19;20426;-66
2022/09/15 01:51:03;;;;;;;6.05;2.13;;;17.40;60.10;;;;;;7364572;19;20014;-66
2022/09/15 01:53:35;;;;;;;4.95;2.00;;;17.50;59.20;;;;;;7361487;19;20014;-66
2022/09/15 01:56:08;;;;;;;3.95;1.80;;;17.50;57.90;;;;;;7361088;19;20015;-66
2022/09/15 01:58:40;;;;;;;4.20;1.85;;;17.60;56.80;;;;;;7366764;19;20030;-67
2022/09/15 02:01:18;;;;;;;5.03;2.00;;;17.60;56.10;;;;;;7385699;19;20018;-66
2022/09/15 02:03:54;;;;;;;3.75;1.75;;;17.50;55.10;;;;;;7361572;19;20495;-66
2022/09/15 02:06:35;;;;;;;3.15;1.80;;;17.60;54.40;;;;;;7360974;19;20006;-66
2022/09/15 02:09:11;;;;;;;2.13;1.38;;;17.60;53.70;;;;;;7365318;19;20009;-67
2022/09/15 02:11:51;;;;;;;2.70;1.73;;;17.50;53.20;;;;;;7362584;19;20394;-66
2022/09/15 02:14:27;;;;;;;5.10;1.98;;;17.50;53.70;;;;;;7359971;19;20003;-66
2022/09/15 02:17:01;;;;;;;4.50;1.95;;;17.50;54.40;;;;;;7361855;19;20034;-67
2022/09/15 02:19:34;;;;;;;3.03;2.08;;;17.40;53.90;;;;;;7375513;19;20486;-66
2022/09/15 02:22:11;;;;;;;5.53;2.17;;;17.40;55.00;;;;;;7387189;19;20018;-66
2022/09/15 02:24:45;;;;;;;5.32;2.22;;;17.40;54.90;;;;;;7356823;19;20025;-66
2022/09/15 02:27:21;;;;;;;3.15;1.98;;;17.40;55.60;;;;;;7361885;19;20007;-66
2022/09/15 02:29:53;;;;;;;4.32;2.08;;;17.40;55.80;;;;;;7362377;19;20030;-66
2022/09/15 02:32:28;;;;;;;5.65;2.65;;;17.40;55.80;;;;;;7364526;19;20348;-66
2022/09/15 02:35:06;;;;;;;3.38;2.05;;;17.50;55.40;;;;;;7359526;19;20054;-66
2022/09/15 02:37:38;;;;;;;3.72;2.10;;;17.50;54.80;;;;;;7362772;19;20474;-66
2022/09/15 02:40:09;;;;;;;3.17;2.10;;;17.50;54.40;;;;;;7384191;19;20022;-66
2022/09/15 02:42:39;;;;;;;2.33;1.90;;;17.50;54.30;;;;;;7361133;19;20026;-66
2022/09/15 02:45:11;;;;;;;3.70;2.22;;;17.50;54.40;;;;;;7358017;19;20010;-66
2022/09/15 02:47:44;;;;;;;3.72;2.25;;;17.40;54.30;;;;;;7363494;19;20406;-66
2022/09/15 02:50:13;;;;;;;4.30;2.22;;;17.40;55.60;;;;;;7362338;19;20018;-65
2022/09/15 02:52:43;;;;;;;5.45;2.00;;;17.40;56.10;;;;;;7361923;19;20048;-65
2022/09/15 02:55:14;;;;;;;3.85;2.10;;;17.40;55.80;;;;;;7379530;19;20493;-66
2022/09/15 02:57:44;;;;;;;3.88;2.20;;;17.40;55.70;;;;;;7362651;19;20018;-66
2022/09/15 03:00:17;;;;;;;3.25;1.88;;;17.50;55.10;;;;;;7362181;19;20308;-66
2022/09/15 03:02:52;;;;;;;3.33;2.00;;;17.50;54.70;;;;;;7361856;19;20545;-65
2022/09/15 03:05:25;;;;;;;7.55;2.00;;;17.50;54.30;;;;;;7359793;19;20017;-65
2022/09/15 03:07:55;;;;;;;3.75;1.98;;;17.50;54.30;;;;;;7363099;19;20051;-67
2022/09/15 03:10:27;;;;;;;2.88;1.70;;;17.60;53.50;;;;;;7382550;19;20018;-65
2022/09/15 03:12:57;;;;;;;4.22;1.80;;;17.60;52.10;;;;;;7361836;19;20006;-65
2022/09/15 03:15:28;;;;;;;3.63;1.73;;;17.60;52.10;;;;;;7358566;19;20015;-66
2022/09/15 03:18:00;;;;;;;5.57;3.17;;;17.60;51.30;;;;;;7362934;19;20038;-66
2022/09/15 03:20:30;;;;;;;5.60;2.67;;;17.60;51.20;;;;;;7362778;19;20014;-65
2022/09/15 03:23:02;;;;;;;3.10;1.65;;;17.60;50.20;;;;;;7360189;19;20087;-66
2022/09/15 03:25:31;;;;;;;2.20;1.60;;;17.60;49.40;;;;;;7357504;19;20019;-66
2022/09/15 03:28:01;;;;;;;8.27;2.90;;;17.70;48.40;;;;;;7377106;19;20474;-65
2022/09/15 03:30:31;;;;;;;5.88;2.25;;;17.60;48.60;;;;;;7362511;19;20021;-66
2022/09/15 03:33:04;;;;;;;2.85;1.70;;;17.60;48.40;;;;;;7362700;19;20601;-67
2022/09/15 03:35:33;;;;;;;2.78;1.63;;;17.60;48.10;;;;;;7362786;19;20014;-66
2022/09/15 03:38:03;;;;;;;3.60;1.92;;;17.60;49.10;;;;;;7360338;19;20014;-66
2022/09/15 03:40:33;;;;;;;4.15;1.70;;;17.50;50.10;;;;;;7366970;19;20506;-67
2022/09/15 03:43:03;;;;;;;2.92;1.90;;;17.50;50.40;;;;;;7390550;19;20018;-66
2022/09/15 03:45:32;;;;;;;5.15;2.00;;;17.50;50.50;;;;;;7370284;19;20010;-66
2022/09/15 03:48:06;;;;;;;3.20;2.15;;;17.50;50.40;;;;;;7365368;19;20003;-67
2022/09/15 03:50:36;;;;;;;5.20;2.40;;;17.50;50.70;;;;;;7368465;19;20893;-67
2022/09/15 03:53:05;;;;;;;3.22;2.10;;;17.50;51.10;;;;;;7368935;19;20014;-66
2022/09/15 03:55:35;;;;;;;2.78;1.33;;;17.50;49.50;;;;;;7370771;19;20375;-67
2022/09/15 03:58:05;;;;;;;2.78;1.45;;;17.50;49.10;;;;;;7387132;19;20022;-66
2022/09/15 04:00:35;;;;;;;5.25;1.60;;;17.60;48.10;;;;;;7369418;19;20007;-67
2022/09/15 04:03:08;;;;;;;3.05;2.15;;;17.60;48.00;;;;;;7369300;19;20023;-65
2022/09/15 04:05:38;;;;;;;2.13;1.15;;;17.60;47.80;;;;;;7367778;19;20036;-65
2022/09/15 04:08:08;;;;;;;2.83;1.67;;;17.60;46.20;;;;;;7367196;19;20079;-66
2022/09/15 04:10:40;;;;;;;4.18;1.45;;;17.60;46.70;;;;;;7367869;19;20015;-67
2022/09/15 04:13:10;;;;;;;1.52;1.30;;;17.60;47.80;;;;;;7390232;19;20049;-66
2022/09/15 04:15:39;;;;;;;3.15;1.85;;;17.60;47.80;;;;;;7367859;19;20006;-66
2022/09/15 04:18:12;;;;;;;1.88;1.20;;;17.60;47.90;;;;;;7365029;19;20010;-66
2022/09/15 04:20:42;;;;;;;2.58;1.73;;;17.60;47.10;;;;;;7368822;19;20017;-66
2022/09/15 04:23:11;;;;;;;1.92;1.30;;;17.60;47.00;;;;;;7368488;19;20034;-66
2022/09/15 04:25:41;;;;;;;3.63;1.27;;;17.60;46.40;;;;;;7368517;19;20041;-67
2022/09/15 04:28:11;;;;;;;1.67;1.27;;;17.60;47.10;;;;;;7388512;19;20711;-66
2022/09/15 04:30:40;;;;;;;2.15;1.00;;;17.60;47.10;;;;;;7365858;19;20384;-66
2022/09/15 04:33:13;;;;;;;3.05;1.42;;;17.60;47.30;;;;;;7368645;19;20014;-66
2022/09/15 04:35:42;;;;;;;5.03;1.30;;;17.60;46.60;;;;;;7364878;19;20010;-66
2022/09/15 04:38:12;;;;;;;2.75;1.38;;;17.60;45.70;;;;;;7368066;19;20481;-66
2022/09/15 04:40:42;;;;;;;5.63;1.60;;;17.70;46.00;;;;;;7367525;19;20375;-66
2022/09/15 04:43:12;;;;;;;3.53;1.30;;;17.70;46.30;;;;;;7388255;19;20494;-66
2022/09/15 04:45:42;;;;;;;1.30;1.00;;;17.70;46.20;;;;;;7366853;19;20010;-66
2022/09/15 04:48:14;;;;;;;3.22;1.50;;;17.70;46.50;;;;;;7365886;19;20006;-66
2022/09/15 04:50:44;;;;;;;3.38;1.60;;;17.60;46.70;;;;;;7364926;19;20015;-64
2022/09/15 04:53:14;;;;;;;2.45;1.40;;;17.60;47.70;;;;;;7367575;19;20022;-66
2022/09/15 04:55:43;;;;;;;2.22;1.40;;;17.60;48.00;;;;;;7366257;19;20339;-66
2022/09/15 04:58:13;;;;;;;2.88;1.27;;;17.60;48.60;;;;;;7388068;19;20030;-65
2022/09/15 05:00:44;;;;;;;2.97;1.55;;;17.60;48.80;;;;;;7366764;19;20517;-66
2022/09/15 05:03:17;;;;;;;3.33;1.90;;;17.60;49.60;;;;;;7367248;19;20103;-66
2022/09/15 05:05:48;;;;;;;3.00;1.42;;;17.60;49.90;;;;;;7363487;19;20010;-65
2022/09/15 05:08:18;;;;;;;4.93;1.60;;;17.60;49.20;;;;;;7367306;19;20022;-67
2022/09/15 05:10:48;;;;;;;3.55;1.30;;;17.60;48.50;;;;;;7365840;19;20482;-66
2022/09/15 05:13:18;;;;;;;2.55;1.77;;;17.60;49.00;;;;;;7388788;19;20014;-67
2022/09/15 05:15:48;;;;;;;5.55;3.20;;;17.60;49.30;;;;;;7363899;19;20128;-65
2022/09/15 05:18:20;;;;;;;5.43;3.30;;;17.60;49.00;;;;;;7364802;19;20063;-65
2022/09/15 05:20:50;;;;;;;2.20;1.70;;;17.70;49.40;;;;;;7365607;19;20014;-66
2022/09/15 05:23:19;;;;;;;3.83;1.77;;;17.60;48.80;;;;;;7366840;19;20034;-66
2022/09/15 05:25:56;;;;;;;2.20;1.73;;;17.70;49.20;;;;;;7362693;19;20015;-66
2022/09/15 05:28:27;;;;;;;2.70;1.60;;;17.70;49.50;;;;;;7388526;19;20030;-65
2022/09/15 05:30:57;;;;;;;5.50;1.70;;;17.70;49.60;;;;;;7363611;19;20375;-65
2022/09/15 05:33:30;;;;;;;2.38;1.40;;;17.70;49.20;;;;;;7365026;19;20007;-65
2022/09/15 05:36:01;;;;;;;1.52;1.42;;;17.70;49.30;;;;;;7360589;19;20018;-66
2022/09/15 05:38:32;;;;;;;2.38;1.50;;;17.80;48.70;;;;;;7367673;19;20530;-66
2022/09/15 05:41:06;;;;;;;4.57;1.90;;;17.70;48.20;;;;;;7363942;19;20010;-66
2022/09/15 05:43:37;;;;;;;3.63;1.80;;;17.80;48.80;;;;;;7365762;19;20022;-66
2022/09/15 05:46:07;;;;;;;7.78;3.05;;;17.80;47.80;;;;;;7382896;19;20034;-66
2022/09/15 05:48:40;;;;;;;4.63;1.70;;;17.70;47.40;;;;;;7365106;19;20394;-65
2022/09/15 05:51:10;;;;;;;20.17;3.40;;;17.80;49.10;;;;;;7364213;19;20490;-66
2022/09/15 05:53:41;;;;;;;6.80;2.67;;;17.70;52.10;;;;;;7366338;19;20042;-66
2022/09/15 05:56:13;;;;;;;4.97;2.17;;;17.50;55.20;;;;;;7358511;19;20429;-66
2022/09/15 05:58:45;;;;;;;3.30;1.90;;;17.40;56.90;;;;;;7368486;19;20014;-66
2022/09/15 06:01:17;;;;;;;3.20;2.20;;;17.40;59.70;;;;;;7387053;19;20018;-66
2022/09/15 06:03:50;;;;;;;4.10;2.30;;;17.30;59.90;;;;;;7361564;19;20412;-66
2022/09/15 06:06:20;;;;;;;3.22;2.10;;;17.30;60.20;;;;;;7358934;19;20063;-65
2022/09/15 06:08:54;;;;;;;4.68;2.42;;;17.30;60.90;;;;;;7366872;19;20014;-66
2022/09/15 06:11:29;;;;;;;5.30;2.50;;;17.30;61.20;;;;;;7363820;19;20007;-65
2022/09/15 06:14:01;;;;;;;5.60;2.42;;;17.30;61.40;;;;;;7362965;19;20074;-65
2022/09/15 06:16:34;;;;;;;3.38;2.30;;;17.30;61.80;;;;;;7372111;19;20031;-65
2022/09/15 06:19:07;;;;;;;6.20;2.85;;;17.30;62.50;;;;;;7386967;19;20032;-65
2022/09/15 06:21:37;;;;;;;4.68;2.60;;;17.30;63.10;;;;;;7365706;19;20026;-65
2022/09/15 06:24:08;;;;;;;5.30;2.60;;;17.30;62.60;;;;;;7364130;19;20055;-65
2022/09/15 06:26:37;;;;;;;4.15;2.42;;;17.30;62.80;;;;;;7357146;19;20010;-65
2022/09/15 06:29:08;;;;;;;5.22;2.17;;;17.30;62.40;;;;;;7365025;19;20007;-66
2022/09/15 06:31:38;;;;;;;6.43;2.58;;;17.30;62.20;;;;;;7362648;19;20026;-64
2022/09/15 06:34:10;;;;;;;8.35;2.85;;;17.40;62.70;;;;;;7384280;19;20014;-65
2022/09/15 06:36:40;;;;;;;7.28;3.00;;;17.40;62.20;;;;;;7357674;19;20010;-65
2022/09/15 06:39:10;;;;;;;13.95;3.30;;;17.40;62.70;;;;;;7365984;19;20011;-66
2022/09/15 06:41:40;;;;;;;5.57;3.20;;;17.30;62.80;;;;;;7360295;19;20052;-65
2022/09/15 06:44:29;;;;;;;5.25;3.00;;;17.40;63.30;;;;;;7361817;19;20450;-65
2022/09/15 06:46:59;;;;;;;8.45;3.33;;;17.40;63.70;;;;;;7357672;19;20021;-65
2022/09/15 06:49:32;;;;;;;7.68;3.55;;;17.40;64.30;;;;;;7385897;19;20477;-65
2022/09/15 06:52:03;;;;;;;5.47;3.08;;;17.50;64.50;;;;;;7363148;19;20018;-65
2022/09/15 06:54:33;;;;;;;5.78;3.20;;;17.50;64.50;;;;;;7362141;19;20011;-65
2022/09/15 06:57:03;;;;;;;4.05;3.30;;;17.40;64.30;;;;;;7356629;19;20010;-66
2022/09/15 06:59:33;;;;;;;6.75;3.80;;;17.40;64.40;;;;;;7363961;19;20038;-65
2022/09/15 07:02:02;;;;;;;4.97;3.00;;;17.50;64.70;;;;;;7363981;19;20018;-66
2022/09/15 07:04:38;;;;;;;9.77;3.30;;;17.40;64.70;;;;;;7362598;19;20449;-65
2022/09/15 07:07:08;;;;;;;4.95;3.00;;;17.40;65.40;;;;;;7377767;19;20039;-66
2022/09/15 07:09:38;;;;;;;4.55;2.97;;;17.40;65.60;;;;;;7362971;19;20014;-65
2022/09/15 07:12:10;;;;;;;5.30;2.97;;;17.40;65.70;;;;;;7362848;19;20010;-65
2022/09/15 07:14:39;;;;;;;4.45;2.63;;;17.40;66.50;;;;;;7362385;19;20042;-65
2022/09/15 07:17:09;;;;;;;3.97;2.33;;;17.40;66.10;;;;;;7356580;19;20027;-65
2022/09/15 07:19:42;;;;;;;4.45;3.30;;;17.50;66.60;;;;;;7363140;19;20007;-66
2022/09/15 07:22:12;;;;;;;3.55;2.35;;;17.50;66.50;;;;;;7385788;19;20022;-66
2022/09/15 07:24:42;;;;;;;4.38;2.55;;;17.60;66.80;;;;;;7358902;19;20017;-64
2022/09/15 07:27:11;;;;;;;4.28;2.20;;;17.60;66.60;;;;;;7354408;19;20040;-66
2022/09/15 07:29:41;;;;;;;3.28;2.35;;;17.60;66.50;;;;;;7363857;19;20013;-64
2022/09/15 07:32:11;;;;;;;4.50;2.33;;;17.70;66.20;;;;;;7361700;19;20042;-65
2022/09/15 07:34:43;;;;;;;4.50;2.35;;;17.80;66.50;;;;;;7363048;19;20010;-65
2022/09/15 07:37:13;;;;;;;4.22;2.60;;;17.80;65.70;;;;;;7377885;19;20010;-65
2022/09/15 07:39:43;;;;;;;4.78;2.13;;;17.80;64.30;;;;;;7362905;19;20010;-65
2022/09/15 07:42:13;;;;;;;4.50;2.00;;;17.90;62.60;;;;;;7362558;19;20018;-65
2022/09/15 07:44:44;;;;;;;3.25;1.50;;;18.10;62.80;;;;;;7362531;19;20014;-65
2022/09/15 07:47:13;;;;;;;3.60;1.50;;;18.20;60.80;;;;;;7353648;19;20020;-65
2022/09/15 07:49:46;;;;;;;2.33;1.25;;;18.30;59.00;;;;;;7364335;19;20014;-65
2022/09/15 07:52:15;;;;;;;2.58;1.30;;;18.30;56.20;;;;;;7379051;19;20018;-65
2022/09/15 07:54:45;;;;;;;1.77;1.17;;;18.30;55.60;;;;;;7357828;19;20014;-65
2022/09/15 07:57:15;;;;;;;2.20;1.25;;;18.40;55.90;;;;;;7351463;19;20014;-65
2022/09/15 07:59:45;;;;;;;2.65;1.50;;;18.40;54.50;;;;;;7361688;19;20006;-65
2022/09/15 08:02:18;;;;;;;3.63;1.23;;;18.40;54.10;;;;;;7361534;19;20014;-65
2022/09/15 08:04:51;;;;;;;2.65;1.25;;;18.50;53.70;;;;;;7362095;19;20033;-65
2022/09/15 08:07:21;;;;;;;3.35;1.45;;;18.50;54.70;;;;;;7374137;19;20037;-65
2022/09/15 08:09:51;;;;;;;4.22;1.20;;;18.30;52.80;;;;;;7359971;19;20082;-65
2022/09/15 08:12:21;;;;;;;6.13;2.70;;;18.20;53.10;;;;;;7361156;19;20470;-65
2022/09/15 08:14:51;;;;;;;6.38;1.42;;;18.40;55.50;;;;;;7361920;19;20814;-65
2022/09/15 08:17:20;;;;;;;2.55;1.20;;;18.20;54.20;;;;;;7351996;19;20011;-65
2022/09/15 08:19:53;;;;;;;3.63;1.50;;;18.30;56.20;;;;;;7360490;19;20358;-66
2022/09/15 08:22:23;;;;;;;3.03;1.42;;;18.10;55.20;;;;;;7383773;19;20010;-65
2022/09/15 08:24:52;;;;;;;2.03;1.20;;;18.10;55.40;;;;;;7361017;19;20022;-66
2022/09/15 08:27:22;;;;;;;3.17;1.52;;;18.10;56.50;;;;;;7357139;19;20014;-65
2022/09/15 08:29:52;;;;;;;2.20;1.17;;;18.10;56.60;;;;;;7367362;19;20025;-65
2022/09/15 08:32:22;;;;;;;2.08;1.20;;;18.00;56.60;;;;;;7366230;19;20493;-65
2022/09/15 08:34:54;;;;;;;2.45;1.30;;;17.90;56.60;;;;;;7366885;19;20019;-66
2022/09/15 08:37:24;;;;;;;5.88;3.00;;;18.00;58.40;;;;;;7380201;19;20283;-65
2022/09/15 08:39:54;;;;;;;2.72;1.38;;;17.90;58.10;;;;;;7367025;19;20478;-66
2022/09/15 08:42:37;;;;;;;1.67;1.20;;;17.90;59.00;;;;;;7364123;19;20018;-65
2022/09/15 08:45:22;;;;;;;1.92;1.40;;;17.90;59.50;;;;;;7366518;19;20040;-66
2022/09/15 08:47:57;;;;;;;2.72;1.05;;;17.90;59.10;;;;;;7357495;19;20035;-64
2022/09/15 08:50:32;;;;;;;3.90;1.15;;;17.90;59.10;;;;;;7366253;19;20116;-65
2022/09/15 08:53:08;;;;;;;2.65;1.17;;;17.80;58.60;;;;;;7361727;19;20018;-65
2022/09/15 08:55:44;;;;;;;6.22;2.40;;;17.90;59.00;;;;;;7364370;19;20013;-66
2022/09/15 08:58:18;;;;;;;2.72;1.40;;;17.80;58.40;;;;;;7382569;19;20485;-65
2022/09/15 09:00:50;;;;;;;4.70;1.27;;;17.90;58.00;;;;;;7365000;19;20021;-66
2022/09/15 09:03:48;;;;;;;1.50;0.80;;;18.00;56.90;;;;;;7364873;19;20010;-65
2022/09/15 09:06:28;;;;;;;2.20;0.65;;;17.90;57.30;;;;;;7359134;19;20044;-64
2022/09/15 09:09:20;;;;;;;2.65;0.70;;;17.80;58.60;;;;;;7362928;19;20006;-65
2022/09/15 09:12:04;;;;;;;2.03;0.70;;;17.70;57.90;;;;;;7365050;19;20018;-64
2022/09/15 09:14:44;;;;;;;1.45;0.75;;;17.70;58.40;;;;;;7366450;19;20360;-66
2022/09/15 09:17:39;;;;;;;0.60;0.40;;;17.50;59.40;;;;;;7355537;19;20013;-66
2022/09/15 09:20:31;;;;;;;1.20;0.60;;;17.30;59.60;;;;;;7365103;19;20340;-65
2022/09/15 09:23:10;;;;;;;0.50;0.40;;;17.20;61.50;;;;;;7364788;19;20101;-65
2022/09/15 09:25:39;;;;;;;0.45;0.32;;;17.20;61.70;;;;;;7365457;19;20027;-65
2022/09/15 09:28:22;;;;;;;0.32;0.30;;;17.10;60.80;;;;;;7384633;19;20010;-66
2022/09/15 09:30:52;;;;;;;2.78;0.70;;;17.10;63.60;;;;;;7363710;19;20011;-64
2022/09/15 09:33:29;;;;;;;2.67;0.88;;;17.10;64.10;;;;;;7361320;19;20048;-65
2022/09/15 09:36:02;;;;;;;1.38;0.70;;;16.90;64.00;;;;;;7362162;19;20054;-65
2022/09/15 09:38:39;;;;;;;0.57;0.57;;;16.80;65.30;;;;;;7361262;19;20395;-63
2022/09/15 09:41:14;;;;;;;3.70;1.05;;;16.70;66.40;;;;;;7364949;19;20007;-66
2022/09/15 09:43:45;;;;;;;2.88;1.10;;;16.70;66.60;;;;;;7364497;19;20019;-66
2022/09/15 09:46:16;;;;;;;7.00;1.02;;;16.70;67.30;;;;;;7382422;19;20018;-66
2022/09/15 09:48:50;;;;;;;3.92;1.02;;;16.50;67.80;;;;;;7363938;19;20018;-66
2022/09/15 09:51:50;;;;;;;2.63;1.23;;;16.40;68.80;;;;;;7364413;19;20475;-66
2022/09/15 09:54:26;;;;;;;2.05;1.40;;;16.20;69.70;;;;;;7362997;19;20033;-67
2022/09/15 09:56:58;;;;;;;4.20;2.00;;;15.90;68.70;;;;;;7356327;19;20083;-65
2022/09/15 09:59:36;;;;;;;5.25;2.72;;;15.80;69.70;;;;;;7362593;19;20437;-66
2022/09/15 10:02:20;;;;;;;4.25;3.10;;;15.80;71.00;;;;;;7362931;19;20010;-66
2022/09/15 10:04:52;;;;;;;8.43;3.80;;;15.70;70.60;;;;;;7364282;19;20089;-66
2022/09/15 10:07:26;;;;;;;8.82;4.20;;;15.70;70.50;;;;;;7376773;19;20272;-66
2022/09/15 10:10:01;;;;;;;6.45;4.55;;;15.60;70.60;;;;;;7365102;19;20018;-65
2022/09/15 10:12:34;;;;;;;5.45;4.35;;;15.50;70.00;;;;;;7361514;19;20014;-65
2022/09/15 10:15:07;;;;;;;5.20;3.80;;;15.30;68.70;;;;;;7363187;19;20029;-64
2022/09/15 10:17:43;;;;;;;5.90;4.10;;;15.10;67.70;;;;;;7354763;19;20474;-64
2022/09/15 10:20:27;;;;;;;7.75;5.00;;;15.00;67.50;;;;;;7364097;19;20007;-65
2022/09/15 10:23:05;;;;;;;4.93;4.35;;;15.00;67.50;;;;;;7361669;19;20023;-64
2022/09/15 10:25:39;;;;;;;6.47;4.60;;;15.00;67.80;;;;;;7364561;19;20014;-65
2022/09/15 10:28:29;;;;;;;7.07;5.30;;;15.10;68.40;;;;;;7383563;19;20021;-65
2022/09/15 10:31:09;;;;;;;7.50;5.63;;;15.00;67.20;;;;;;7363652;19;20015;-65
2022/09/15 10:33:41;;;;;;;9.75;6.40;;;14.90;67.30;;;;;;7362366;19;20030;-64
2022/09/15 10:36:16;;;;;;;9.82;5.97;;;14.80;66.40;;;;;;7360783;19;20006;-65
2022/09/15 10:38:48;;;;;;;10.85;5.95;;;14.70;66.00;;;;;;7362943;19;20442;-64
2022/09/15 10:41:29;;;;;;;10.77;6.80;;;14.70;66.10;;;;;;7364234;19;20007;-64
2022/09/15 10:44:20;;;;;;;10.60;7.20;;;14.70;66.10;;;;;;7364273;19;20446;-65
2022/09/15 10:46:59;;;;;;;9.43;6.70;;;14.70;66.50;;;;;;7358041;19;20491;-65
2022/09/15 10:49:48;;;;;;;7.93;6.13;;;14.60;66.30;;;;;;7382286;19;20506;-65
2022/09/15 10:52:28;;;;;;;8.93;6.20;;;14.50;65.80;;;;;;7362270;19;20031;-66
2022/09/15 10:55:23;;;;;;;7.80;6.22;;;14.40;65.70;;;;;;7361629;19;20007;-65
2022/09/15 10:58:45;;;;;;;10.18;6.88;;;14.30;65.50;;;;;;7359480;19;20363;-66
2022/09/15 11:01:32;;;;;;;11.63;7.35;;;14.40;65.70;;;;;;7361820;19;20022;-64
2022/09/15 11:04:23;;;;;;;11.38;7.03;;;14.40;65.70;;;;;;7361789;19;20015;-65
2022/09/15 11:07:00;;;;;;;9.15;7.70;;;14.50;66.30;;;;;;7353427;19;20022;-65
2022/09/15 11:09:35;;;;;;;9.00;6.55;;;14.60;66.80;;;;;;7322864;19;20392;-66
2022/09/15 11:12:21;;;;;;;12.27;7.35;;;14.50;66.30;;;;;;7359837;19;20018;-65
2022/09/15 11:15:17;;;;;;;8.73;6.88;;;14.50;65.90;;;;;;7361086;19;20075;-65
2022/09/15 11:18:03;;;;;;;9.07;6.30;;;14.40;65.60;;;;;;7354941;19;20485;-65
2022/09/15 11:21:03;;;;;;;10.50;7.38;;;14.30;64.40;;;;;;7361785;19;20019;-66
2022/09/15 11:23:36;;;;;;;10.95;7.35;;;14.50;65.80;;;;;;7360102;19;20022;-66
2022/09/15 11:26:09;;;;;;;9.48;6.30;;;14.50;64.90;;;;;;7359567;19;20729;-65
2022/09/15 11:28:43;;;;;;;8.30;6.13;;;14.40;63.10;;;;;;7357483;19;20063;-65
2022/09/15 11:31:20;;;;;;;13.57;6.38;;;14.40;62.10;;;;;;7383073;19;20022;-65
2022/09/15 11:33:57;;;;;;;8.45;6.15;;;14.30;61.30;;;;;;7359015;19;20088;-66
2022/09/15 11:36:35;;;;;;;11.15;7.00;;;14.30;60.80;;;;;;7357676;19;20481;-65
2022/09/15 11:39:12;;;;;;;10.75;7.22;;;14.40;62.60;;;;;;7363232;19;20006;-65
2022/09/15 11:41:48;;;;;;;10.60;7.07;;;14.30;61.50;;;;;;7364280;19;20090;-65
2022/09/15 11:44:24;;;;;;;7.72;5.88;;;14.20;60.90;;;;;;7362055;19;20011;-65
2022/09/15 11:47:15;;;;;;;11.32;6.47;;;14.40;61.50;;;;;;7355999;19;20745;-65
2022/09/15 11:49:50;;;;;;;7.63;6.20;;;14.50;61.50;;;;;;7362142;19;20496;-65
2022/09/15 11:52:26;;;;;;;;;;;14.60;60.70;;;;;;7385169;19;20322;-65
2022/09/15 11:55:02;;;;;;;7.90;6.10;;;14.60;59.20;;;;;;7359923;19;19914;-65
2022/09/15 11:57:38;;;;;;;10.90;6.60;;;14.70;55.90;;;;;;7354103;19;20021;-64
2022/09/15 12:00:13;;;;;;;8.88;6.03;;;14.80;55.50;;;;;;7360845;19;20014;-66
2022/09/15 12:02:52;;;;;;;8.85;7.80;;;14.90;55.00;;;;;;7368144;19;20015;-64
2022/09/15 12:05:28;;;;;;;12.25;7.63;;;15.00;55.00;;;;;;7367937;19;20409;-65
2022/09/15 12:08:02;;;;;;;11.90;7.25;;;15.00;52.60;;;;;;7360187;19;20014;-64
2022/09/15 12:10:38;;;;;;;8.80;6.68;;;15.00;53.70;;;;;;7381100;19;20011;-65
2022/09/15 12:13:09;;;;;;;11.68;6.75;;;15.00;52.90;;;;;;7388793;19;20018;-65
2022/09/15 12:15:39;;;;;;;11.23;7.13;;;15.10;52.00;;;;;;7367109;19;20042;-64
2022/09/15 12:18:21;;;;;;;9.95;6.40;;;15.20;52.80;;;;;;7364748;19;20077;-66
2022/09/15 12:21:14;;;;;;;7.78;5.20;;;15.20;48.80;;;;;;7368736;19;20017;-65
2022/09/15 12:23:48;;;;;;;8.88;5.93;;;15.10;48.10;;;;;;7367104;19;20014;-66
2022/09/15 12:26:20;;;;;;;8.40;5.40;;;15.40;46.20;;;;;;7359612;19;20034;-65
2022/09/15 12:29:01;;;;;;;6.43;4.75;;;15.20;42.70;;;;;;7363517;19;20014;-65
2022/09/15 12:31:36;;;;;;;7.10;4.72;;;15.50;42.10;;;;;;7385104;19;20018;-65
2022/09/15 12:34:37;;;;;;;5.30;4.25;;;15.60;39.10;;;;;;7352514;19;20074;-66
2022/09/15 12:37:14;;;;;;;6.97;4.28;;;16.00;35.90;;;;;;7348432;19;20034;-65
2022/09/15 12:39:45;;;;;;;5.85;4.57;;;15.90;38.50;;;;;;7365175;19;20011;-66
2022/09/15 12:42:20;;;;;;;8.60;4.50;;;16.10;32.00;;;;;;7367510;19;20318;-65
2022/09/15 12:44:54;;;;;;;10.20;4.82;;;16.00;40.20;;;;;;7367932;19;20018;-66
2022/09/15 12:47:30;;;;;;;9.73;5.30;;;16.10;39.10;;;;;;7362297;19;20459;-64
2022/09/15 12:50:20;;;;;;;7.28;5.05;;;16.00;38.10;;;;;;7367301;19;20010;-66
2022/09/15 12:52:52;;;;;;;9.43;5.68;;;16.00;38.10;;;;;;7364992;19;20023;-66
2022/09/15 12:55:25;;;;;;;6.70;4.95;;;16.40;37.10;;;;;;7387955;19;20011;-65
2022/09/15 12:57:58;;;;;;;7.75;4.68;;;16.30;34.10;;;;;;7359179;19;20034;-65
2022/09/15 13:00:31;;;;;;;5.40;4.45;;;16.20;31.80;;;;;;7364342;19;20011;-65
2022/09/15 13:03:01;;;;;;;5.65;4.80;;;16.40;35.20;;;;;;7364361;19;20006;-64
2022/09/15 13:06:16;;;;;;;5.97;4.38;;;16.80;37.80;;;;;;7365884;19;20044;-65
2022/09/15 13:09:16;;;;;;;6.97;5.10;;;16.70;31.70;;;;;;7364118;19;20002;-65
2022/09/15 13:11:51;;;;;;;4.95;4.07;;;16.80;26.70;;;;;;7364890;19;20111;-66
2022/09/15 13:14:29;;;;;;;5.60;4.22;;;16.40;30.80;;;;;;7367039;19;20018;-65
2022/09/15 13:17:05;;;;;;;7.20;4.10;;;16.80;34.20;;;;;;7359140;19;20010;-64
2022/09/15 13:19:43;;;;;;;6.72;4.03;;;16.80;28.10;;;;;;7364641;19;20395;-65
2022/09/15 13:22:26;;;;;;;6.22;4.50;;;16.80;28.70;;;;;;7386383;19;20029;-65
2022/09/15 13:24:59;;;;;;;6.00;3.85;;;17.00;32.30;;;;;;7366635;19;20018;-65
2022/09/15 13:27:36;;;;;;;6.38;4.03;;;16.80;29.70;;;;;;7356874;19;20010;-65